Time;durP1;ratioP1;P1;durP2;ratioP2;P2;SDS_P1;SDS_P2;PMS_P1;PMS_P2;Temp;Humidity;BMP_temperature;BMP_pressure;BME280_temperature;BME280_humidity;BME280_pressure;Samples;Min_cycle;Max_cycle;Signal;HPM_P1;HPM_P2
2022/09/12 00:01:20;;;;;;;2.97;0.90;;;;;;;21.49;54.16;100785.78;4734219;30;20075;-76
2022/09/12 00:04:04;;;;;;;4.38;0.65;;;;;;;21.41;54.00;100786.94;4734031;30;20056;-76
2022/09/12 00:06:49;;;;;;;1.13;0.40;;;;;;;21.15;54.88;100785.19;4733719;30;20056;-76
2022/09/12 00:09:34;;;;;;;4.10;0.75;;;;;;;20.75;55.56;100788.00;4747334;30;20056;-76
2022/09/12 00:12:18;;;;;;;0.98;0.52;;;;;;;20.49;55.67;100791.72;4733781;30;20048;-76
2022/09/12 00:15:04;;;;;;;2.75;0.90;;;;;;;20.44;55.38;100787.34;4733890;30;20059;-76
2022/09/12 00:17:49;;;;;;;2.88;0.70;;;;;;;20.19;56.26;100791.78;4747344;30;20417;-75
2022/09/12 00:20:34;;;;;;;4.07;1.17;;;;;;;19.89;56.91;100797.38;4745821;30;20051;-76
2022/09/12 00:23:19;;;;;;;1.50;0.60;;;;;;;20.15;56.17;100787.41;4733858;30;20078;-76
2022/09/12 00:26:05;;;;;;;2.88;0.60;;;;;;;19.94;57.11;100787.97;4733742;30;20071;-76
2022/09/12 00:28:50;;;;;;;6.10;0.65;;;;;;;20.05;56.79;100792.44;4733142;30;20063;-75
2022/09/12 00:31:35;;;;;;;4.25;1.48;;;;;;;19.78;56.93;100788.16;4737008;30;20125;-76
2022/09/12 00:34:20;;;;;;;2.40;0.60;;;;;;;19.65;57.80;100781.31;4733672;30;20055;-76
2022/09/12 00:37:05;;;;;;;4.28;0.60;;;;;;;19.92;57.93;100782.00;4733428;30;20063;-75
2022/09/12 00:39:50;;;;;;;2.58;0.82;;;;;;;20.17;56.59;100785.84;4733050;30;20424;-76
2022/09/12 00:42:35;;;;;;;3.63;0.75;;;;;;;20.15;57.11;100790.97;4733519;30;20075;-75
2022/09/12 00:45:26;;;;;;;1.58;0.43;;;;;;;20.85;58.15;100787.31;4746278;30;20424;-75
2022/09/12 00:48:21;;;;;;;0.63;0.43;;;;;;;21.17;55.92;100788.38;4733330;30;20061;-76
2022/09/12 00:51:05;;;;;;;;;;;;;;;21.89;55.88;100790.31;4733754;30;20532;-76
2022/09/12 00:53:52;;;;;;;4.93;0.73;;;;;;;22.14;54.41;100785.69;4733301;30;19919;-78
2022/09/12 00:56:40;;;;;;;6.20;1.02;;;;;;;22.30;53.46;100790.84;4733319;30;20060;-77
2022/09/12 00:59:30;;;;;;;1.20;0.70;;;;;;;22.04;52.18;100791.19;4746926;30;20532;-77
2022/09/12 01:02:15;;;;;;;1.17;0.60;;;;;;;21.97;52.73;100780.88;4733163;30;20051;-77
2022/09/12 01:05:00;;;;;;;2.50;0.40;;;;;;;22.55;53.05;100779.81;4735771;30;20055;-76
2022/09/12 01:07:47;;;;;;;1.20;0.50;;;;;;;22.56;52.85;100775.84;4733072;30;20068;-76
2022/09/12 01:10:34;;;;;;;1.88;0.50;;;;;;;23.00;51.85;100775.50;4732925;30;20060;-75
2022/09/12 01:13:19;;;;;;;2.75;0.50;;;;;;;23.10;51.36;100768.34;4733255;30;20051;-76
2022/09/12 01:16:06;;;;;;;2.55;1.02;;;;;;;23.04;51.18;100770.72;4733320;30;20069;-77
2022/09/12 01:19:08;;;;;;;0.20;0.20;;;;;;;23.31;50.70;100773.84;4733005;30;20067;-77
2022/09/12 01:22:28;;;;;;;6.60;0.50;;;;;;;23.33;49.75;100772.25;4733174;30;20417;-77
2022/09/12 01:25:41;;;;;;;1.98;0.38;;;;;;;22.84;49.57;100767.56;4744679;30;20059;-76
2022/09/12 01:28:51;;;;;;;490.35;94.35;;;;;;;23.13;50.67;100767.53;4734332;30;20055;-77
2022/09/12 01:31:51;;;;;;;49.10;10.13;;;;;;;22.29;49.90;100758.00;4738079;30;20445;-80
2022/09/12 01:34:45;;;;;;;90.88;14.88;;;;;;;22.37;52.95;100765.13;4736653;30;20513;-78
2022/09/12 01:37:37;;;;;;;5.18;1.42;;;;;;;23.04;50.27;100765.19;4736387;30;20053;-77
2022/09/12 01:40:47;;;;;;;3.92;0.73;;;;;;;23.11;49.53;100770.69;4736381;30;20059;-75
2022/09/12 01:43:46;;;;;;;1.17;0.68;;;;;;;23.02;49.99;100754.47;4736196;30;20068;-77
2022/09/12 01:47:07;;;;;;;0.50;0.30;;;;;;;23.22;49.52;100759.56;4735496;30;20055;-75
2022/09/12 01:50:06;;;;;;;1.77;0.95;;;;;;;23.05;49.87;100754.88;4735877;30;20476;-78
2022/09/12 01:53:00;;;;;;;0.55;0.40;;;;;;;22.99;50.12;100757.25;4736240;30;20056;-78
2022/09/12 01:56:21;;;;;;;5.47;1.10;;;;;;;23.06;50.23;100753.69;4749493;30;20428;-77
2022/09/12 01:59:05;;;;;;;9.23;0.60;;;;;;;22.99;50.00;100746.97;4735807;30;20071;-78
2022/09/12 02:02:00;;;;;;;0.93;0.57;;;;;;;22.94;50.07;100750.13;4736528;30;20052;-78
2022/09/12 02:04:53;;;;;;;1.77;0.43;;;;;;;22.96;50.09;100750.50;4735884;30;20071;-79
2022/09/12 02:08:08;;;;;;;1.90;0.50;;;;;;;22.96;50.30;100744.97;4736068;30;20071;-78
2022/09/12 02:11:00;;;;;;;0.93;0.60;;;;;;;22.98;49.70;100745.38;4735898;30;20051;-78
2022/09/12 02:14:02;;;;;;;1.38;0.32;;;;;;;23.03;49.61;100747.75;4736327;30;20052;-78
2022/09/12 02:16:57;;;;;;;0.57;0.50;;;;;;;23.11;49.31;100754.03;4735688;30;20069;-78
2022/09/12 02:19:48;;;;;;;0.82;0.55;;;;;;;23.09;49.28;100744.56;4735642;30;20380;-78
2022/09/12 02:22:36;;;;;;;0.30;0.17;;;;;;;23.10;48.93;100748.91;4735909;30;20060;-78
2022/09/12 02:25:22;;;;;;;1.00;0.38;;;;;;;22.99;49.15;100748.94;4735859;30;20556;-78
2022/09/12 02:28:14;;;;;;;1.63;0.55;;;;;;;22.89;49.76;100750.53;4735598;30;20063;-77
2022/09/12 02:31:31;;;;;;;1.80;0.45;;;;;;;22.99;49.23;100752.50;4735663;30;20532;-78
2022/09/12 02:34:54;;;;;;;1.05;0.40;;;;;;;22.94;49.41;100735.47;4735689;30;20528;-76
2022/09/12 02:38:06;;;;;;;1.02;0.40;;;;;;;22.86;49.73;100737.44;4734779;30;20048;-78
2022/09/12 02:40:51;;;;;;;2.35;0.50;;;;;;;22.86;49.33;100737.44;4735462;30;20528;-78
2022/09/12 02:43:36;;;;;;;1.30;0.30;;;;;;;22.83;49.26;100737.47;4735574;30;20072;-77
2022/09/12 02:46:27;;;;;;;3.60;0.40;;;;;;;22.85;49.41;100741.44;4735442;30;20059;-78
2022/09/12 02:49:12;;;;;;;1.02;0.40;;;;;;;22.84;49.37;100723.22;4732979;30;20071;-77
2022/09/12 02:51:58;;;;;;;0.55;0.30;;;;;;;22.82;49.13;100736.66;4717876;30;20134;-78
2022/09/12 02:54:43;;;;;;;1.50;0.52;;;;;;;22.77;49.32;100727.94;4717711;30;20409;-78
2022/09/12 02:57:28;;;;;;;2.83;0.70;;;;;;;22.70;49.29;100725.97;4725085;30;20067;-78
2022/09/12 03:00:13;;;;;;;2.88;0.60;;;;;;;22.75;49.14;100730.34;4734890;30;20521;-78
2022/09/12 03:03:21;;;;;;;1.50;0.40;;;;;;;22.78;49.07;100733.09;4735069;30;20064;-76
2022/09/12 03:06:34;;;;;;;0.50;0.30;;;;;;;22.80;48.98;100735.50;4735173;30;20055;-76
2022/09/12 03:09:33;;;;;;;1.80;0.45;;;;;;;22.77;48.98;100737.06;4734697;30;20543;-76
2022/09/12 03:12:33;;;;;;;4.25;1.52;;;;;;;22.68;49.25;100733.09;4749988;30;20162;-77
2022/09/12 03:15:26;;;;;;;2.25;0.50;;;;;;;22.58;49.34;100731.91;4734921;30;20421;-77
2022/09/12 03:18:40;;;;;;;1.00;0.55;;;;;;;22.67;49.17;100726.75;4748181;30;20052;-77
2022/09/12 03:21:47;;;;;;;5.30;0.50;;;;;;;22.65;49.16;100726.38;4736409;30;20047;-77
2022/09/12 03:24:36;;;;;;;0.90;0.30;;;;;;;22.70;48.99;100723.19;4746384;30;20053;-77
2022/09/12 03:27:28;;;;;;;0.73;0.30;;;;;;;22.65;48.91;100731.13;4738126;30;20643;-76
2022/09/12 03:30:13;;;;;;;0.73;0.40;;;;;;;22.65;48.84;100725.56;4734279;30;20115;-77
2022/09/12 03:32:57;;;;;;;0.70;0.35;;;;;;;22.53;49.21;100722.00;4734565;30;20532;-78
2022/09/12 03:35:42;;;;;;;2.45;0.32;;;;;;;22.57;49.07;100722.78;4747658;30;20047;-77
2022/09/12 03:38:27;;;;;;;2.38;0.50;;;;;;;22.57;49.31;100724.75;4751944;30;20059;-77
2022/09/12 03:41:12;;;;;;;1.85;1.10;;;;;;;22.67;48.79;100718.44;4752318;30;20075;-77
2022/09/12 03:43:57;;;;;;;0.70;0.10;;;;;;;22.56;48.97;100723.19;4766107;30;20067;-77
2022/09/12 03:46:42;;;;;;;0.20;0.13;;;;;;;22.65;48.90;100723.59;4747238;30;20051;-77
2022/09/12 03:49:26;;;;;;;1.98;0.28;;;;;;;22.65;48.63;100726.38;4734007;30;20082;-78
2022/09/12 03:52:11;;;;;;;3.13;0.93;;;;;;;22.68;48.47;100722.78;4735898;30;20051;-78
2022/09/12 03:54:56;;;;;;;0.30;0.30;;;;;;;22.65;48.43;100726.38;4748844;30;20396;-77
2022/09/12 03:57:40;;;;;;;1.15;0.28;;;;;;;22.58;48.47;100718.84;4754476;30;20071;-77
2022/09/12 04:00:26;;;;;;;1.98;0.20;;;;;;;22.65;48.36;100715.28;4744378;30;20055;-77
2022/09/12 04:03:11;;;;;;;1.45;0.25;;;;;;;22.68;48.32;100720.00;4751719;30;20055;-78
2022/09/12 04:05:56;;;;;;;2.42;0.40;;;;;;;22.63;48.04;100725.97;4767944;30;20059;-78
2022/09/12 04:08:42;;;;;;;0.40;0.30;;;;;;;22.73;47.94;100727.97;4759889;30;20056;-77
2022/09/12 04:11:27;;;;;;;1.48;0.57;;;;;;;22.70;47.75;100727.94;4733967;30;20056;-75
2022/09/12 04:14:12;;;;;;;2.55;0.40;;;;;;;22.68;47.91;100720.00;4733977;30;20060;-78
2022/09/12 04:16:56;;;;;;;1.77;0.40;;;;;;;22.67;47.69;100729.50;4733529;30;20058;-78
2022/09/12 04:19:41;;;;;;;0.45;0.20;;;;;;;22.57;48.03;100728.34;4733577;30;20063;-78
2022/09/12 04:22:27;;;;;;;2.40;0.30;;;;;;;22.52;47.99;100734.28;4742761;30;20075;-78
2022/09/12 04:25:12;;;;;;;0.10;0.10;;;;;;;22.42;48.45;100725.94;4763107;30;20400;-77
2022/09/12 04:27:57;;;;;;;0.45;0.15;;;;;;;22.35;48.43;100729.50;4744504;30;20055;-78
2022/09/12 04:30:42;;;;;;;0.38;0.20;;;;;;;22.54;47.96;100734.69;4757616;30;20051;-77
2022/09/12 04:33:27;;;;;;;1.52;0.20;;;;;;;22.51;48.10;100729.91;4733498;30;20063;-76
2022/09/12 04:36:15;;;;;;;4.32;0.20;;;;;;;22.44;48.42;100727.16;4735458;30;20080;-77
2022/09/12 04:39:01;;;;;;;1.80;0.20;;;;;;;22.44;48.39;100732.69;4751911;30;20051;-78
2022/09/12 04:41:46;;;;;;;0.40;0.28;;;;;;;22.39;48.58;100724.78;4728897;30;20052;-78
2022/09/12 04:44:31;;;;;;;2.80;0.30;;;;;;;22.31;48.54;100733.47;4750200;30;20063;-77
2022/09/12 04:47:15;;;;;;;3.95;0.30;;;;;;;22.37;48.25;100732.69;4736495;30;20428;-78
2022/09/12 04:50:00;;;;;;;1.35;0.22;;;;;;;21.97;48.04;100735.78;4730885;30;20559;-76
2022/09/12 04:52:50;;;;;;;2.33;0.32;;;;;;;21.34;49.77;100731.56;4733544;30;20056;-77
2022/09/12 04:55:34;;;;;;;2.72;0.82;;;;;;;20.91;50.40;100741.56;4730837;30;20060;-76
2022/09/12 04:58:19;;;;;;;1.30;0.40;;;;;;;20.89;51.47;100735.59;4750507;30;20154;-77
2022/09/12 05:01:10;;;;;;;0.52;0.38;;;;;;;20.94;50.19;100729.72;4732931;30;20067;-75
2022/09/12 05:03:58;;;;;;;8.63;0.50;;;;;;;20.60;51.10;100737.38;4732048;30;20040;-77
2022/09/12 05:06:45;;;;;;;2.70;0.47;;;;;;;20.24;51.55;100736.22;4733031;30;20051;-76
2022/09/12 05:09:30;;;;;;;3.03;0.50;;;;;;;19.62;53.27;100737.91;4732538;30;20056;-75
2022/09/12 05:12:15;;;;;;;2.53;0.50;;;;;;;19.39;53.85;100737.19;4732978;30;20066;-77
2022/09/12 05:15:00;;;;;;;1.27;0.50;;;;;;;19.44;53.96;100745.97;4733176;30;20071;-77
2022/09/12 05:17:45;;;;;;;11.65;0.80;;;;;;;19.46;54.36;100749.13;4732947;30;20060;-76
2022/09/12 05:20:32;;;;;;;6.18;0.85;;;;;;;19.97;53.39;100743.03;4745381;30;20061;-78
2022/09/12 05:23:17;;;;;;;2.25;0.55;;;;;;;20.39;52.44;100760.06;4732568;30;20079;-77
2022/09/12 05:26:04;;;;;;;13.75;1.33;;;;;;;20.73;51.74;100757.19;4732989;30;20071;-76
2022/09/12 05:28:50;;;;;;;13.63;1.48;;;;;;;21.11;50.53;100762.22;4732371;30;20056;-77
2022/09/12 05:31:36;;;;;;;9.35;0.60;;;;;;;21.60;49.48;100763.69;4732712;30;20505;-76
2022/09/12 05:34:22;;;;;;;2.80;1.30;;;;;;;21.37;49.81;100764.00;4736085;30;20423;-77
2022/09/12 05:37:07;;;;;;;8.38;0.85;;;;;;;21.14;50.32;100761.47;4744835;30;20059;-78
2022/09/12 05:39:52;;;;;;;5.97;1.52;;;;;;;21.54;49.26;100773.53;4743663;30;20059;-77
2022/09/12 05:42:36;;;;;;;7.75;0.80;;;;;;;21.81;48.49;100771.28;4755187;30;20052;-78
2022/09/12 05:45:21;;;;;;;11.52;0.80;;;;;;;21.83;48.73;100778.03;4748463;30;20059;-77
2022/09/12 05:48:06;;;;;;;4.00;0.80;;;;;;;22.29;47.80;100786.53;4749609;30;20059;-76
2022/09/12 05:50:51;;;;;;;4.90;0.93;;;;;;;22.37;47.51;100788.09;4764731;30;20527;-76
2022/09/12 05:53:37;;;;;;;1.60;0.60;;;;;;;22.44;47.51;100790.91;4751117;30;20055;-76
2022/09/12 05:56:25;;;;;;;6.57;0.82;;;;;;;23.08;48.50;100795.69;4750487;30;20389;-77
2022/09/12 05:59:13;;;;;;;12.30;1.23;;;;;;;23.25;46.90;100797.66;4745323;30;20055;-78
2022/09/12 06:01:58;;;;;;;11.07;0.77;;;;;;;23.21;46.62;100802.41;4760557;30;20044;-77
2022/09/12 06:04:43;;;;;;;11.38;0.98;;;;;;;23.03;46.07;100788.56;4746113;30;20067;-78
2022/09/12 06:07:28;;;;;;;5.28;1.08;;;;;;;22.94;46.48;100802.84;4744146;30;20069;-79
2022/09/12 06:10:13;;;;;;;4.97;0.90;;;;;;;22.90;46.08;100796.50;4750460;30;20055;-77
2022/09/12 06:12:57;;;;;;;2.72;0.43;;;;;;;22.85;46.54;100801.66;4745984;30;20048;-77
2022/09/12 06:15:43;;;;;;;3.65;0.60;;;;;;;22.78;46.59;100794.13;4743460;30;20055;-76
2022/09/12 06:18:27;;;;;;;4.75;0.50;;;;;;;22.72;47.38;100794.91;4744917;30;20428;-79
2022/09/12 06:21:12;;;;;;;4.65;0.65;;;;;;;22.71;47.65;100796.06;4744614;30;20052;-78
2022/09/12 06:23:57;;;;;;;3.53;0.52;;;;;;;22.85;47.54;100790.56;4759210;30;20070;-79
2022/09/12 06:26:42;;;;;;;9.65;0.70;;;;;;;22.90;47.89;100799.28;4754468;30;20055;-78
2022/09/12 06:29:28;;;;;;;2.92;1.23;;;;;;;23.07;47.50;100789.34;4753843;30;20059;-78
2022/09/12 06:32:12;;;;;;;2.67;0.70;;;;;;;22.95;48.33;100790.56;4769796;30;20055;-78
2022/09/12 06:34:57;;;;;;;1.65;0.63;;;;;;;23.02;48.03;100796.06;4766386;30;20055;-79
2022/09/12 06:37:45;;;;;;;3.70;0.40;;;;;;;23.08;48.05;100790.13;4756047;30;20051;-77
2022/09/12 06:40:31;;;;;;;1.80;0.60;;;;;;;23.05;48.30;100791.72;4735326;30;20069;-78
2022/09/12 06:43:15;;;;;;;1.92;0.55;;;;;;;23.12;48.43;100793.69;4739706;30;20625;-77
2022/09/12 06:46:01;;;;;;;4.43;0.73;;;;;;;23.15;48.13;100790.13;4753133;30;20063;-78
2022/09/12 06:48:46;;;;;;;3.30;0.80;;;;;;;23.18;47.87;100787.34;4753100;30;20531;-77
2022/09/12 06:51:30;;;;;;;4.10;0.65;;;;;;;23.25;48.01;100792.09;4753324;30;20527;-78
2022/09/12 06:54:16;;;;;;;8.93;0.57;;;;;;;23.25;47.80;100792.88;4753220;30;20059;-78
2022/09/12 06:57:01;;;;;;;3.45;0.77;;;;;;;23.24;48.25;100784.97;4766477;30;20063;-78
2022/09/12 06:59:45;;;;;;;2.30;0.82;;;;;;;23.31;48.46;100793.28;4753151;30;20059;-79
2022/09/12 07:02:30;;;;;;;4.03;0.90;;;;;;;23.27;48.56;100789.69;4753258;30;20137;-79
2022/09/12 07:05:15;;;;;;;5.90;0.80;;;;;;;23.46;48.09;100789.31;4753519;30;20071;-78
2022/09/12 07:08:00;;;;;;;26.65;3.60;;;;;;;23.63;47.88;100791.22;4752655;30;20056;-77
2022/09/12 07:10:45;;;;;;;3.63;0.80;;;;;;;23.59;48.25;100782.13;4752918;30;20048;-78
2022/09/12 07:13:30;;;;;;;3.20;1.67;;;;;;;23.74;47.64;100797.53;4769345;30;20073;-78
2022/09/12 07:16:15;;;;;;;5.07;0.70;;;;;;;23.77;47.97;100788.38;4753055;30;20066;-78
2022/09/12 07:19:01;;;;;;;1.90;0.75;;;;;;;23.86;48.05;100794.31;4752724;30;20075;-77
2022/09/12 07:21:46;;;;;;;3.95;0.75;;;;;;;23.79;47.64;100794.34;4752974;30;20059;-78
2022/09/12 07:24:30;;;;;;;4.05;1.08;;;;;;;23.84;48.09;100793.91;4752504;30;20138;-77
2022/09/12 07:27:15;;;;;;;4.90;1.52;;;;;;;23.90;47.80;100793.50;4765145;30;20134;-78
2022/09/12 07:30:00;;;;;;;3.50;0.68;;;;;;;23.85;48.54;100792.72;4763933;30;20432;-77
2022/09/12 07:32:44;;;;;;;9.38;1.10;;;;;;;23.94;48.49;100799.81;4752697;30;20067;-78
2022/09/12 07:35:32;;;;;;;1.40;0.70;;;;;;;24.03;47.59;100783.50;4752280;30;20079;-77
2022/09/12 07:38:17;;;;;;;2.08;1.17;;;;;;;24.02;47.43;100791.06;4752065;30;20059;-77
2022/09/12 07:41:17;;;;;;;2.50;1.15;;;;;;;24.20;46.75;100791.78;4752545;30;20059;-78
2022/09/12 07:44:02;;;;;;;1.35;1.00;;;;;;;24.20;46.78;100791.00;4752122;30;20412;-76
2022/09/12 07:46:47;;;;;;;2.97;1.17;;;;;;;23.59;48.13;100796.00;4766809;30;20059;-78
2022/09/12 07:49:31;;;;;;;6.90;1.55;;;;;;;23.75;48.00;100804.66;4752516;30;20060;-78
2022/09/12 07:52:15;;;;;;;;;;;;;;;23.76;49.74;100797.94;4766103;30;20055;-79
2022/09/12 07:55:00;;;;;;;2.97;1.27;;;;;;;23.77;48.64;100801.50;4752261;30;19922;-79
2022/09/12 07:57:48;;;;;;;2.28;1.20;;;;;;;23.79;48.74;100808.22;4752319;30;20055;-78
2022/09/12 08:00:35;;;;;;;39.08;2.45;;;;;;;23.82;49.08;100812.97;4737053;30;20056;-78
2022/09/12 08:03:20;;;;;;;3.58;1.10;;;;;;;24.06;48.20;100802.16;4752238;30;20047;-78
2022/09/12 08:06:06;;;;;;;;;;;;;;;24.52;47.34;100815.81;4734258;30;20527;-77
2022/09/12 08:08:54;;;;;;;5.07;1.55;;;;;;;24.51;46.93;100826.13;4734231;30;19918;-78
2022/09/12 08:11:39;;;;;;;7.65;1.70;;;;;;;24.57;47.35;100818.16;4735848;30;20063;-78
2022/09/12 08:14:23;;;;;;;;;;;;;;;24.64;47.25;100818.88;4740464;30;20055;-78
2022/09/12 08:17:08;;;;;;;3.03;1.50;;;;;;;24.34;48.43;100818.69;4751935;30;19918;-78
2022/09/12 08:19:53;;;;;;;3.30;1.90;;;;;;;24.60;47.32;100820.91;4730840;30;20062;-78
2022/09/12 08:22:39;;;;;;;3.78;0.70;;;;;;;24.49;47.14;100820.19;4762730;30;20483;-78
2022/09/12 08:25:24;;;;;;;6.68;1.65;;;;;;;24.59;47.83;100816.53;4742556;30;20062;-78
2022/09/12 08:28:09;;;;;;;4.57;2.42;;;;;;;24.75;47.62;100823.56;4719611;30;20070;-79
2022/09/12 08:30:58;;;;;;;8.20;3.55;;;;;;;24.99;48.33;100819.84;4749250;30;20059;-78
2022/09/12 08:33:44;;;;;;;5.40;2.08;;;;;;;24.92;46.89;100819.91;4733820;30;20172;-78
2022/09/12 08:36:29;;;;;;;9.93;3.95;;;;;;;24.73;48.57;100818.44;4745359;30;20055;-77
2022/09/12 08:39:14;;;;;;;4.68;2.45;;;;;;;25.04;47.17;100819.41;4732284;30;20052;-76
2022/09/12 08:42:02;;;;;;;;;;;;;;;24.97;47.38;100816.69;4739373;30;20601;-76
2022/09/12 08:45:14;;;;;;;6.78;2.78;;;;;;;25.30;46.62;100817.94;4763430;30;20394;-79
2022/09/12 08:48:03;;;;;;;3.50;2.63;;;;;;;25.15;47.72;100817.31;4733630;30;20043;-79
2022/09/12 08:50:48;;;;;;;5.90;3.22;;;;;;;25.08;47.66;100820.16;4787689;24;20063;-79
2022/09/12 08:53:34;;;;;;;4.88;2.03;;;;;;;25.26;47.10;100823.56;4784266;29;20058;-79
2022/09/12 08:56:19;;;;;;;6.50;1.98;;;;;;;25.48;46.97;100822.16;4783811;29;20051;-78
2022/09/12 08:59:04;;;;;;;4.28;1.80;;;;;;;25.55;45.59;100813.72;4782380;29;20520;-80
2022/09/12 09:01:53;;;;;;;4.18;1.58;;;;;;;25.39;45.95;100821.06;4785288;29;20070;-78
2022/09/12 09:04:50;;;;;;;4.75;2.17;;;;;;;25.22;48.44;100820.03;4771089;30;20055;-79
2022/09/12 09:07:50;;;;;;;9.00;2.45;;;;;;;24.87;48.71;100817.53;4771469;30;20051;-79
2022/09/12 09:10:38;;;;;;;3.25;1.92;;;;;;;25.26;47.11;100812.44;4770913;30;20046;-80
2022/09/12 09:16:40;;;;;;;1.92;1.10;;;;;;;25.73;44.56;100816.31;4770774;30;20418;-78
2022/09/12 09:19:39;;;;;;;2.13;1.40;;;;;;;25.96;44.82;100813.63;4771343;30;20066;-79
2022/09/12 09:22:36;;;;;;;4.47;1.65;;;;;;;25.76;46.11;100806.34;4770998;30;20051;-79
2022/09/12 09:25:29;;;;;;;6.82;2.25;;;;;;;26.05;44.96;100809.56;4770727;30;20055;-79
2022/09/12 09:28:28;;;;;;;3.70;1.77;;;;;;;26.27;45.14;100822.81;4769130;30;20063;-81
2022/09/12 09:31:19;;;;;;;3.28;1.70;;;;;;;25.93;45.45;100811.69;4768570;30;20051;-82
2022/09/12 09:34:14;;;;;;;3.25;1.25;;;;;;;25.72;46.84;100813.94;4770227;30;20055;-80
2022/09/12 09:37:30;;;;;;;5.07;1.92;;;;;;;25.82;45.96;100813.03;4773148;30;20067;-80
2022/09/12 09:40:25;;;;;;;3.75;1.90;;;;;;;26.10;46.83;100817.47;4771001;30;20074;-79
2022/09/12 09:43:22;;;;;;;4.95;1.60;;;;;;;26.16;46.19;100810.97;4773719;30;20535;-80
2022/09/12 09:46:07;;;;;;;3.70;1.92;;;;;;;26.06;46.58;100811.91;4771312;30;20063;-80
2022/09/12 09:48:53;;;;;;;2.88;1.30;;;;;;;26.20;47.07;100810.97;4770312;30;20051;-79
2022/09/12 09:51:41;;;;;;;1.98;1.10;;;;;;;26.21;45.30;100807.72;4773895;30;20535;-79
2022/09/12 09:54:35;;;;;;;1.95;0.77;;;;;;;25.99;45.63;100806.44;4774364;30;20054;-78
2022/09/12 09:57:35;;;;;;;1.85;0.60;;;;;;;25.77;45.96;100807.91;4773864;30;20527;-81
2022/09/12 10:00:25;;;;;;;1.80;0.90;;;;;;;26.11;44.89;100803.09;4776301;30;20066;-77
2022/09/12 10:03:13;;;;;;;5.28;0.70;;;;;;;26.14;44.81;100809.84;4775103;30;20055;-78
2022/09/12 10:06:07;;;;;;;2.97;0.90;;;;;;;25.88;46.46;100809.38;4777614;30;20050;-80
2022/09/12 10:09:06;;;;;;;2.30;0.98;;;;;;;26.22;44.46;100806.56;4775701;30;20523;-77
2022/09/12 10:11:52;;;;;;;11.15;1.23;;;;;;;26.49;43.12;100803.78;4772728;30;20059;-79
2022/09/12 10:14:40;;;;;;;1.00;0.70;;;;;;;26.75;42.17;100805.75;4773587;30;20397;-80
2022/09/12 10:17:28;;;;;;;2.25;0.80;;;;;;;26.70;41.84;100802.66;4774713;30;20070;-77
2022/09/12 10:20:38;;;;;;;0.70;0.40;;;;;;;26.37;43.50;100801.56;4772352;30;20068;-79
2022/09/12 10:23:35;;;;;;;1.67;0.88;;;;;;;26.38;43.21;100798.34;4774226;30;20058;-78
2022/09/12 10:26:20;;;;;;;1.40;0.73;;;;;;;26.47;43.04;100800.59;4772966;30;20068;-78
2022/09/12 10:29:26;;;;;;;0.93;0.60;;;;;;;26.57;43.59;100805.22;4776806;30;20055;-78
2022/09/12 10:32:17;;;;;;;4.88;1.15;;;;;;;26.13;42.26;100797.09;4773377;30;20067;-78
2022/09/12 10:35:07;;;;;;;2.38;0.82;;;;;;;26.92;41.75;100795.53;4772668;30;20059;-80
2022/09/12 10:37:59;;;;;;;4.38;0.80;;;;;;;26.89;41.24;100796.38;4779546;30;20059;-78
2022/09/12 10:40:43;;;;;;;1.90;0.28;;;;;;;26.93;40.76;100797.09;4773623;30;20055;-79
2022/09/12 10:43:34;;;;;;;;;;;;;;;27.05;39.74;100792.91;4769742;29;20055;-77
2022/09/12 10:46:18;;;;;;;1.35;0.32;;;;;;;27.46;39.16;100786.97;4772825;29;19917;-77
2022/09/12 10:49:17;;;;;;;;;;;;;;;27.20;39.69;100786.66;4786816;29;20058;-76
2022/09/12 10:52:22;;;;;;;1.05;0.45;;;;;;;27.47;37.19;100788.56;4791243;29;19921;-79
2022/09/12 10:55:13;;;;;;;1.02;0.40;;;;;;;26.95;37.64;100779.94;4784439;30;20074;-79
2022/09/12 10:58:01;;;;;;;6.95;0.40;;;;;;;26.85;41.43;100784.47;4786459;29;20042;-77
2022/09/12 11:00:53;;;;;;;0.43;0.40;;;;;;;26.53;39.84;100782.19;4789410;29;20066;-78
2022/09/12 11:03:56;;;;;;;0.45;0.32;;;;;;;27.00;41.06;100771.06;4790944;30;20054;-78
2022/09/12 11:06:57;;;;;;;3.15;0.82;;;;;;;27.02;39.82;100769.41;4775025;30;20051;-79
2022/09/12 11:10:14;;;;;;;3.22;1.58;;;;;;;27.45;38.78;100768.63;4780807;30;20055;-80
2022/09/12 11:13:01;;;;;;;2.53;0.35;;;;;;;27.24;39.44;100764.25;4757698;30;20055;-79
2022/09/12 11:16:05;;;;;;;2.78;0.77;;;;;;;26.73;41.16;100771.09;4754823;30;20055;-80
2022/09/12 11:19:05;;;;;;;2.67;1.08;;;;;;;27.27;38.73;100763.41;4783381;30;20050;-78
2022/09/12 11:21:52;;;;;;;1.27;0.80;;;;;;;27.81;39.47;100769.50;4782526;30;20554;-78
2022/09/12 11:24:43;;;;;;;0.52;0.50;;;;;;;27.41;39.04;100770.72;4790515;30;20070;-78
2022/09/12 11:27:43;;;;;;;9.18;1.67;;;;;;;27.70;37.87;100766.16;4775487;30;20042;-80
2022/09/12 11:30:49;;;;;;;3.75;1.13;;;;;;;27.72;37.95;100755.34;4777123;30;20066;-79
2022/09/12 11:33:40;;;;;;;8.07;1.00;;;;;;;28.06;37.82;100758.56;4793935;29;20050;-79
2022/09/12 11:36:47;;;;;;;6.03;0.90;;;;;;;26.94;40.80;100756.81;4789892;30;20060;-79
2022/09/12 11:39:39;;;;;;;1.77;0.60;;;;;;;26.13;42.23;100760.84;4780178;29;20062;-82
2022/09/12 11:42:34;;;;;;;1.55;0.60;;;;;;;26.05;42.88;100757.41;4761810;30;20054;-80
2022/09/12 11:45:25;;;;;;;1.30;0.65;;;;;;;26.26;42.20;100759.88;4790159;29;20519;-78
2022/09/12 11:48:36;;;;;;;4.72;0.65;;;;;;;25.92;43.27;100748.00;4793906;29;20062;-79
2022/09/12 11:51:35;;;;;;;1.35;0.55;;;;;;;26.72;40.99;100750.78;4790533;29;20050;-80
2022/09/12 11:54:44;;;;;;;0.60;0.40;;;;;;;25.91;43.39;100740.84;4794097;29;20070;-77
2022/09/12 11:57:47;;;;;;;20.08;1.17;;;;;;;26.36;42.28;100738.66;4790857;29;20126;-80
2022/09/12 12:00:49;;;;;;;1.75;0.47;;;;;;;26.64;41.46;100742.97;4776379;29;20051;-79
2022/09/12 12:03:40;;;;;;;2.10;0.75;;;;;;;26.11;42.99;100738.97;4768006;29;20538;-80
2022/09/12 12:06:38;;;;;;;0.93;0.85;;;;;;;26.43;41.58;100743.31;4769582;30;20058;-80
2022/09/12 12:09:23;;;;;;;2.33;1.05;;;;;;;26.75;40.94;100741.56;4773771;29;20050;-79
2022/09/12 12:12:17;;;;;;;1.15;0.68;;;;;;;26.09;42.96;100735.03;4765145;30;20062;-79
2022/09/12 12:15:01;;;;;;;3.25;0.32;;;;;;;25.87;43.47;100729.75;4777438;30;20062;-78
2022/09/12 12:18:00;;;;;;;2.25;1.02;;;;;;;26.21;41.64;100726.88;4770778;30;20055;-79
2022/09/12 12:20:45;;;;;;;1.30;0.55;;;;;;;26.41;41.89;100729.81;4774672;29;20421;-79
2022/09/12 12:23:33;;;;;;;3.35;0.93;;;;;;;26.49;41.37;100722.88;4767135;29;20054;-77
2022/09/12 12:26:39;;;;;;;3.40;0.95;;;;;;;26.75;41.53;100719.25;4779243;30;20241;-82
2022/09/12 12:29:30;;;;;;;1.05;0.77;;;;;;;26.49;41.18;100725.69;4786808;29;20070;-83
2022/09/12 12:32:15;;;;;;;8.27;0.88;;;;;;;26.46;42.33;100712.59;4787737;29;20050;-80
2022/09/12 12:35:20;;;;;;;3.70;0.40;;;;;;;26.59;41.88;100707.19;4787370;30;20523;-81
2022/09/12 12:38:30;;;;;;;1.42;0.63;;;;;;;26.57;41.75;100704.81;4791725;29;20415;-80
2022/09/12 12:41:18;;;;;;;1.38;0.50;;;;;;;26.47;41.94;100708.56;4787479;30;20519;-78
2022/09/12 12:44:57;;;;;;;1.95;0.50;;;;;;;25.95;43.51;100708.19;4787166;30;20050;-81
2022/09/12 12:47:46;;;;;;;0.98;0.40;;;;;;;26.03;43.47;100708.84;4787454;30;20058;-79
2022/09/12 12:50:31;;;;;;;2.80;0.70;;;;;;;26.23;42.90;100704.97;4790635;29;20046;-80
2022/09/12 12:53:27;;;;;;;2.05;1.00;;;;;;;27.09;39.83;100707.88;4787171;30;20416;-81
2022/09/12 12:56:39;;;;;;;2.58;0.63;;;;;;;26.81;41.51;100703.59;4787529;29;20408;-79
2022/09/12 12:59:24;;;;;;;2.47;1.40;;;;;;;27.56;39.54;100700.19;4787124;30;20068;-81
2022/09/12 13:02:20;;;;;;;3.35;0.80;;;;;;;27.46;39.80;100698.38;4787854;29;20051;-80
2022/09/12 13:05:17;;;;;;;3.97;1.10;;;;;;;27.72;38.82;100696.66;4791235;29;20054;-79
2022/09/12 13:08:09;;;;;;;7.13;1.10;;;;;;;28.20;38.23;100693.16;4788727;29;20412;-78
2022/09/12 13:11:04;;;;;;;119.95;5.47;;;;;;;28.08;39.79;100689.03;4786907;30;20054;-80
2022/09/12 13:13:55;;;;;;;4.53;1.38;;;;;;;27.86;38.84;100687.16;4789606;29;20047;-80
2022/09/12 13:17:03;;;;;;;4.53;0.95;;;;;;;26.89;41.05;100678.38;4788105;29;20054;-80
2022/09/12 13:19:49;;;;;;;6.38;0.80;;;;;;;26.73;41.16;100677.03;4790154;30;20082;-79